createdAt,value
2024-01-16T00:00:40.413Z,99590.97
2024-01-16T00:03:07.052Z,99614.78
2024-01-16T00:05:33.593Z,99600.59
2024-01-16T00:08:00.032Z,99579.63
2024-01-16T00:10:26.457Z,99611.25
2024-01-16T00:12:52.936Z,99628.28
2024-01-16T00:15:19.335Z,99622.16
2024-01-16T00:17:45.969Z,99605.34
2024-01-16T00:20:12.775Z,99627.22
2024-01-16T00:22:39.137Z,99634.31
2024-01-16T00:25:06.057Z,99622.41
2024-01-16T00:27:32.565Z,99629.88
2024-01-16T00:29:59.073Z,99625.22
2024-01-16T00:32:25.783Z,99636.34
2024-01-16T00:34:52.170Z,99652.38
2024-01-16T00:37:18.910Z,99677.34
2024-01-16T00:39:45.446Z,99668.22
2024-01-16T00:42:12.031Z,99628.91
2024-01-16T00:44:41.552Z,99657.53
2024-01-16T00:47:08.126Z,99648.44
2024-01-16T00:49:36.571Z,99658.75
2024-01-16T00:52:03.103Z,99650.47
2024-01-16T00:54:29.672Z,99663.56
2024-01-16T00:56:56.151Z,99667.59
2024-01-16T00:59:22.577Z,99664.06
2024-01-16T01:01:48.952Z,99646.41
2024-01-16T01:04:15.430Z,99654.06
2024-01-16T01:06:42.057Z,99670.00
2024-01-16T01:09:08.417Z,99650.38
2024-01-16T01:11:34.922Z,99672.44
2024-01-16T01:14:01.393Z,99670.63
2024-01-16T01:16:27.897Z,99663.28
2024-01-16T01:18:54.484Z,99653.13
2024-01-16T01:21:21.231Z,99650.06
2024-01-16T01:23:47.951Z,99640.75
2024-01-16T01:26:14.624Z,99627.19
2024-01-16T01:28:41.740Z,99646.47
2024-01-16T01:31:14.591Z,99649.94
2024-01-16T01:33:41.609Z,99651.94
2024-01-16T01:36:08.226Z,99642.63
2024-01-16T01:38:34.858Z,99646.88
2024-01-16T01:41:01.313Z,99650.81
2024-01-16T01:43:27.797Z,99649.34
2024-01-16T01:46:09.333Z,99656.59
2024-01-16T01:48:36.781Z,99648.78
2024-01-16T01:51:03.616Z,99651.09
2024-01-16T01:53:32.083Z,99634.19
2024-01-16T01:56:05.084Z,99642.28
2024-01-16T01:58:31.637Z,99667.38
2024-01-16T02:00:58.300Z,99660.03
2024-01-16T02:03:28.523Z,99670.38
2024-01-16T02:05:55.849Z,99654.81
2024-01-16T02:08:23.273Z,99649.38
2024-01-16T02:10:51.168Z,99675.13
2024-01-16T02:13:17.664Z,99658.88
2024-01-16T02:15:44.316Z,99668.69
2024-01-16T02:18:10.767Z,99675.19
2024-01-16T02:20:37.391Z,99667.13
2024-01-16T02:23:05.250Z,99693.03
2024-01-16T02:25:32.109Z,99677.06
2024-01-16T02:27:58.658Z,99680.25
2024-01-16T02:30:25.113Z,99689.63
2024-01-16T02:32:51.755Z,99670.16
2024-01-16T02:35:18.463Z,99685.47
2024-01-16T02:37:45.302Z,99686.97
2024-01-16T02:40:12.431Z,99666.72
2024-01-16T02:42:38.948Z,99694.03
2024-01-16T02:45:06.671Z,99688.84
2024-01-16T02:47:33.680Z,99693.09
2024-01-16T02:50:01.004Z,99695.47
2024-01-16T02:52:27.625Z,99696.63
2024-01-16T02:54:54.073Z,99701.31
2024-01-16T02:57:20.657Z,99698.78
2024-01-16T02:59:47.785Z,99672.56
2024-01-16T03:02:14.550Z,99665.72
2024-01-16T03:04:41.199Z,99687.94
2024-01-16T03:07:07.582Z,99695.81
2024-01-16T03:09:34.097Z,99684.31
2024-01-16T03:12:01.205Z,99713.34
2024-01-16T03:14:27.681Z,99710.53
2024-01-16T03:16:54.060Z,99685.63
2024-01-16T03:19:20.621Z,99706.94
2024-01-16T03:21:49.750Z,99693.38
2024-01-16T03:24:16.247Z,99703.78
2024-01-16T03:26:42.624Z,99700.59
2024-01-16T03:29:09.116Z,99717.53
2024-01-16T03:31:35.706Z,99718.19
2024-01-16T03:34:02.256Z,99717.38
2024-01-16T03:36:28.989Z,99713.47
2024-01-16T03:38:55.555Z,99703.56
2024-01-16T03:41:22.064Z,99707.53
2024-01-16T03:43:48.618Z,99718.19
2024-01-16T03:46:15.175Z,99725.13
2024-01-16T03:48:41.725Z,99717.13
2024-01-16T03:51:08.256Z,99712.81
2024-01-16T03:53:34.710Z,99716.75
2024-01-16T03:56:06.366Z,99719.56
2024-01-16T03:58:32.846Z,99722.69
2024-01-16T04:00:59.497Z,99724.34
2024-01-16T04:03:26.247Z,99721.38
2024-01-16T04:05:52.813Z,99711.78
2024-01-16T04:08:19.388Z,99722.38
2024-01-16T04:10:46.011Z,99709.81
2024-01-16T04:13:12.665Z,99717.06
2024-01-16T04:15:40.527Z,99723.44
2024-01-16T04:18:07.916Z,99707.34
2024-01-16T04:20:34.578Z,99712.47
2024-01-16T04:23:03.946Z,99704.66
2024-01-16T04:25:30.321Z,99716.63
2024-01-16T04:27:57.282Z,99699.91
2024-01-16T04:30:24.498Z,99688.34
2024-01-16T04:32:51.089Z,99690.22
2024-01-16T04:35:17.804Z,99695.81
2024-01-16T04:37:44.467Z,99691.78
2024-01-16T04:40:11.478Z,99677.69
2024-01-16T04:42:37.870Z,99689.84
2024-01-16T04:45:04.671Z,99679.00
2024-01-16T04:47:31.219Z,99666.22
2024-01-16T04:49:57.817Z,99664.13
2024-01-16T04:52:24.506Z,99655.31
2024-01-16T04:54:56.116Z,99667.94
2024-01-16T04:57:30.443Z,99634.03
2024-01-16T05:00:11.646Z,99629.03
2024-01-16T05:02:38.244Z,99649.53
2024-01-16T05:05:07.356Z,99670.03
2024-01-16T05:07:41.109Z,99641.81
2024-01-16T05:10:10.392Z,99666.31
2024-01-16T05:12:36.850Z,99641.66
2024-01-16T05:15:09.749Z,99652.91
2024-01-16T05:17:36.290Z,99658.59
2024-01-16T05:20:03.689Z,99638.75
2024-01-16T05:22:30.131Z,99646.88
2024-01-16T05:24:56.552Z,99638.00
2024-01-16T05:27:22.947Z,99640.31
2024-01-16T05:29:49.865Z,99626.53
2024-01-16T05:32:16.432Z,99614.56
2024-01-16T05:34:42.967Z,99605.84
2024-01-16T05:37:09.451Z,99617.16
2024-01-16T05:39:36.061Z,99611.53
2024-01-16T05:42:02.697Z,99596.94
2024-01-16T05:44:31.944Z,99571.41
2024-01-16T05:47:02.089Z,99595.94
2024-01-16T05:49:28.678Z,99577.31
2024-01-16T05:51:55.238Z,99592.16
2024-01-16T05:54:21.693Z,99592.31
2024-01-16T05:56:48.448Z,99581.22
2024-01-16T05:59:17.660Z,99575.34
2024-01-16T06:01:44.166Z,99603.59
2024-01-16T06:04:13.542Z,99595.28
2024-01-16T06:06:41.211Z,99593.47
2024-01-16T06:09:09.881Z,99589.94
2024-01-16T06:11:36.416Z,99601.13
2024-01-16T06:14:05.998Z,99586.34
2024-01-16T06:16:33.704Z,99601.72
2024-01-16T06:19:00.422Z,99574.56
2024-01-16T06:21:33.426Z,99588.63
2024-01-16T06:24:00.275Z,99556.63
2024-01-16T06:26:26.736Z,99561.59
2024-01-16T06:28:53.467Z,99587.13
2024-01-16T06:31:20.286Z,99575.00
2024-01-16T06:33:46.799Z,99575.94
2024-01-16T06:36:13.501Z,99595.28
2024-01-16T06:38:41.073Z,99592.13
2024-01-16T06:41:07.834Z,99582.94
2024-01-16T06:43:34.426Z,99588.50
2024-01-16T06:46:01.020Z,99593.94
2024-01-16T06:48:27.870Z,99548.25
2024-01-16T06:50:57.551Z,99568.88
2024-01-16T06:53:24.164Z,99567.31
2024-01-16T06:55:50.895Z,99580.69
2024-01-16T06:58:17.354Z,99576.16
2024-01-16T07:00:44.342Z,99577.59
2024-01-16T07:03:10.906Z,99547.09
2024-01-16T07:05:37.596Z,99582.59
2024-01-16T07:08:04.383Z,99564.22
2024-01-16T07:10:30.848Z,99557.41
2024-01-16T07:12:57.271Z,99550.34
2024-01-16T07:15:23.720Z,99561.88
2024-01-16T07:17:50.331Z,99574.13
2024-01-16T07:20:17.051Z,99559.41
2024-01-16T07:22:43.587Z,99564.03
2024-01-16T07:25:10.252Z,99555.00
2024-01-16T07:27:39.123Z,99569.97
2024-01-16T07:30:06.246Z,99564.78
2024-01-16T07:32:33.216Z,99559.81
2024-01-16T07:35:08.982Z,99568.09
2024-01-16T07:37:35.547Z,99547.47
2024-01-16T07:40:04.300Z,99558.38
2024-01-16T07:42:30.839Z,99558.19
2024-01-16T07:44:57.275Z,99569.50
2024-01-16T07:47:26.632Z,99581.72
2024-01-16T07:49:53.108Z,99573.22
2024-01-16T07:52:19.539Z,99570.75
2024-01-16T07:54:45.988Z,99561.03
2024-01-16T07:57:12.381Z,99573.03
2024-01-16T07:59:39.028Z,99570.88
2024-01-16T08:02:05.833Z,99563.84
2024-01-16T08:04:35.156Z,99574.88
2024-01-16T08:07:01.781Z,99553.69
2024-01-16T08:09:28.261Z,99552.31
2024-01-16T08:11:54.751Z,99584.94
2024-01-16T08:14:24.418Z,99580.72
2024-01-16T08:16:50.790Z,99581.53
2024-01-16T08:19:17.341Z,99562.50
2024-01-16T08:21:43.880Z,99571.25
2024-01-16T08:24:10.386Z,99557.88
2024-01-16T08:26:36.838Z,99581.88
2024-01-16T08:29:06.397Z,99574.97
2024-01-16T08:31:32.926Z,99586.63
2024-01-16T08:33:59.623Z,99578.94
2024-01-16T08:36:26.136Z,99565.56
2024-01-16T08:38:52.706Z,99594.69
2024-01-16T08:41:19.406Z,99593.69
2024-01-16T08:43:45.917Z,99580.53
2024-01-16T08:46:12.435Z,99597.09
2024-01-16T08:48:38.902Z,99605.25
2024-01-16T08:51:08.730Z,99599.25
2024-01-16T08:53:35.252Z,99616.56
2024-01-16T08:56:01.770Z,99609.22
2024-01-16T08:58:28.302Z,99621.66
2024-01-16T09:00:54.773Z,99617.81
2024-01-16T09:03:21.128Z,99627.00
2024-01-16T09:05:47.749Z,99631.53
2024-01-16T09:08:14.392Z,99607.72
2024-01-16T09:10:40.871Z,99604.34
2024-01-16T09:13:13.008Z,99640.25
2024-01-16T09:15:41.680Z,99612.03
2024-01-16T09:18:08.282Z,99647.91
2024-01-16T09:20:34.912Z,99646.69
2024-01-16T09:23:01.724Z,99637.16
2024-01-16T09:25:28.112Z,99670.66
2024-01-16T09:27:54.523Z,99650.97
2024-01-16T09:30:20.933Z,99662.78
2024-01-16T09:32:47.571Z,99669.22
2024-01-16T09:35:16.461Z,99640.13
2024-01-16T09:37:42.870Z,99667.41
2024-01-16T09:40:10.044Z,99676.78
2024-01-16T09:42:36.871Z,99668.66
2024-01-16T09:45:03.945Z,99680.69
2024-01-16T09:47:32.090Z,99680.56
2024-01-16T09:50:00.884Z,99669.88
2024-01-16T09:52:29.466Z,99666.97
2024-01-16T09:54:56.867Z,99681.59
2024-01-16T09:57:26.941Z,99666.09
2024-01-16T09:59:53.821Z,99671.50
2024-01-16T10:02:20.826Z,99652.72
2024-01-16T10:04:49.698Z,99670.06
2024-01-16T10:07:17.970Z,99674.63
2024-01-16T10:09:44.992Z,99666.34
2024-01-16T10:12:11.600Z,99637.25
2024-01-16T10:14:39.483Z,99673.72
2024-01-16T10:17:08.902Z,99650.38
2024-01-16T10:19:43.360Z,99648.13
2024-01-16T10:22:23.640Z,99652.19
2024-01-16T10:25:05.624Z,99663.19
2024-01-16T10:27:32.733Z,99663.53
2024-01-16T10:29:59.874Z,99660.22
2024-01-16T10:32:38.160Z,99657.16
2024-01-16T10:35:14.955Z,99666.94
2024-01-16T10:37:49.104Z,99662.28
2024-01-16T10:40:21.991Z,99659.56
2024-01-16T10:43:01.356Z,99665.44
2024-01-16T10:45:28.418Z,99660.25
2024-01-16T10:48:06.140Z,99664.56
2024-01-16T10:50:38.121Z,99675.44
2024-01-16T10:53:06.592Z,99675.66
2024-01-16T10:55:50.586Z,99684.16
2024-01-16T10:58:22.567Z,99668.75
2024-01-16T11:00:53.054Z,99684.16
2024-01-16T11:03:28.547Z,99697.75
2024-01-16T11:05:58.539Z,99700.34
2024-01-16T11:08:26.735Z,99706.34
2024-01-16T11:10:53.464Z,99727.44
2024-01-16T11:13:22.494Z,99737.97
2024-01-16T11:15:51.440Z,99731.72
2024-01-16T11:18:18.985Z,99750.09
2024-01-16T11:21:01.982Z,99753.38
2024-01-16T11:23:32.830Z,99759.38
2024-01-16T11:25:59.407Z,99767.56
2024-01-16T11:28:29.913Z,99787.50
2024-01-16T11:30:56.760Z,99773.69
2024-01-16T11:33:32.755Z,99819.97
2024-01-16T11:36:00.557Z,99833.44
2024-01-16T11:38:35.287Z,99852.19
2024-01-16T11:41:02.097Z,99868.38
2024-01-16T11:43:34.813Z,99888.31
2024-01-16T11:46:19.885Z,99884.81
2024-01-16T11:49:03.779Z,99891.13
2024-01-16T11:51:30.681Z,99936.06
2024-01-16T11:54:04.579Z,99915.31
2024-01-16T11:57:20.540Z,99953.00
2024-01-16T12:00:05.784Z,99949.25
2024-01-16T12:02:55.017Z,99985.31
2024-01-16T12:05:23.605Z,99989.84
2024-01-16T12:07:52.344Z,99990.31
2024-01-16T12:10:21.720Z,99999.72
2024-01-16T12:12:49.449Z,100004.75
2024-01-16T12:15:21.275Z,100012.44
2024-01-16T12:18:02.378Z,100014.84
2024-01-16T12:20:32.862Z,100053.84
2024-01-16T12:23:02.065Z,100053.28
2024-01-16T12:25:59.992Z,100046.63
2024-01-16T12:28:24.421Z,100093.88
2024-01-16T12:30:58.776Z,100081.09
2024-01-16T12:33:28.907Z,100101.00
2024-01-16T12:36:03.588Z,100152.53
2024-01-16T12:38:30.249Z,100159.41
2024-01-16T12:40:57.253Z,100154.25
2024-01-16T12:43:23.832Z,100173.09
2024-01-16T12:45:57.142Z,100185.78
2024-01-16T12:48:26.446Z,100185.84
2024-01-16T12:51:02.794Z,100200.34
2024-01-16T12:53:29.977Z,100180.13
2024-01-16T12:56:01.098Z,100218.69
2024-01-16T12:58:34.549Z,100197.25
2024-01-16T13:01:38.421Z,100203.78
2024-01-16T13:04:07.258Z,100245.81
2024-01-16T13:06:34.256Z,100221.50
2024-01-16T13:09:09.004Z,100268.25
2024-01-16T13:11:55.223Z,100338.00
2024-01-16T13:14:26.167Z,100372.69
2024-01-16T13:16:55.491Z,100423.00
2024-01-16T13:19:23.306Z,100475.66
2024-01-16T13:21:50.655Z,100487.41
2024-01-16T13:24:20.118Z,100538.22
2024-01-16T13:26:46.958Z,100646.63
2024-01-16T13:29:14.505Z,100654.06
2024-01-16T13:31:42.452Z,100615.72
2024-01-16T13:34:10.418Z,100650.59
2024-01-16T13:39:07.594Z,100765.88
2024-01-16T13:41:34.564Z,100711.25
2024-01-16T13:44:01.226Z,100709.19
2024-01-16T13:46:41.942Z,100702.25
2024-01-16T13:49:15.961Z,100663.81
2024-01-16T13:51:45.455Z,100744.16
2024-01-16T13:54:12.085Z,100751.00
2024-01-16T13:56:51.727Z,100796.31
2024-01-16T13:59:26.199Z,100811.63
2024-01-16T14:01:52.639Z,100851.69
2024-01-16T14:04:19.251Z,100839.47
2024-01-16T14:07:03.165Z,100810.78
2024-01-16T14:09:35.644Z,100755.13
2024-01-16T14:12:02.186Z,100713.09
2024-01-16T14:14:28.792Z,100701.47
2024-01-16T14:17:00.993Z,100680.06
2024-01-16T14:19:29.162Z,100680.84
2024-01-16T14:21:55.724Z,100691.09
2024-01-16T14:24:22.249Z,100677.88
2024-01-16T14:26:49.690Z,100670.59
2024-01-16T14:29:16.286Z,100727.56
2024-01-16T14:31:42.998Z,100731.19
2024-01-16T14:34:12.741Z,100738.63
2024-01-16T14:36:45.693Z,100729.94
2024-01-16T14:39:12.451Z,100752.31
2024-01-16T14:41:38.984Z,100726.00
2024-01-16T14:44:05.862Z,100726.13
2024-01-16T14:46:32.549Z,100703.88
2024-01-16T14:48:59.046Z,100714.84
2024-01-16T14:51:25.783Z,100700.97
2024-01-16T14:53:54.823Z,100716.97
2024-01-16T14:56:24.757Z,100719.94
2024-01-16T14:58:51.303Z,100734.47
2024-01-16T15:01:20.008Z,100716.00
2024-01-16T15:03:46.830Z,100716.91
2024-01-16T15:06:13.526Z,100718.97
2024-01-16T15:08:40.291Z,100701.84
2024-01-16T15:11:07.003Z,100706.44
2024-01-16T15:13:34.877Z,100707.34
2024-01-16T15:16:02.850Z,100680.16
2024-01-16T15:18:29.500Z,100665.34
2024-01-16T15:20:56.073Z,100649.34
2024-01-16T15:23:25.613Z,100637.50
2024-01-16T15:25:54.181Z,100606.84
2024-01-16T15:28:21.149Z,100587.66
2024-01-16T15:30:47.870Z,100570.16
2024-01-16T15:33:14.545Z,100530.94
2024-01-16T15:35:41.224Z,100530.75
2024-01-16T15:38:08.494Z,100511.72
2024-01-16T15:40:37.991Z,100494.69
2024-01-16T15:43:04.728Z,100450.88
2024-01-16T15:45:31.248Z,100415.44
2024-01-16T15:47:57.843Z,100385.41
2024-01-16T15:50:24.599Z,100370.38
2024-01-16T15:52:53.977Z,100370.16
2024-01-16T15:55:20.460Z,100333.75
2024-01-16T15:57:46.987Z,100324.31
2024-01-16T16:00:16.763Z,100301.94
2024-01-16T16:02:43.341Z,100295.47
2024-01-16T16:05:10.051Z,100254.59
2024-01-16T16:07:36.592Z,100254.59
2024-01-16T16:10:03.221Z,100256.19
2024-01-16T16:12:30.149Z,100205.16
2024-01-16T16:14:56.842Z,100157.38
2024-01-16T16:17:23.516Z,100181.91
2024-01-16T16:19:50.631Z,100171.13
2024-01-16T16:22:17.467Z,100139.53
2024-01-16T16:24:44.108Z,100132.34
2024-01-16T16:27:31.010Z,100131.13
2024-01-16T16:29:58.402Z,100111.72
2024-01-16T16:32:25.541Z,100109.75
2024-01-16T16:34:53.501Z,100096.94
2024-01-16T16:37:23.773Z,100082.94
2024-01-16T16:39:50.255Z,100073.72
2024-01-16T16:42:19.001Z,100053.59
2024-01-16T16:44:48.018Z,100036.06
2024-01-16T16:47:17.971Z,99999.31
2024-01-16T16:49:44.919Z,100023.44
2024-01-16T16:52:11.755Z,100051.00
2024-01-16T16:54:38.945Z,100004.94
2024-01-16T16:57:06.054Z,100010.44
2024-01-16T16:59:34.181Z,100017.31
2024-01-16T17:02:00.854Z,100005.97
2024-01-16T17:04:27.637Z,100036.44
2024-01-16T17:06:54.599Z,100048.06
2024-01-16T17:09:31.819Z,100016.34
2024-01-16T17:12:00.142Z,100030.13
2024-01-16T17:14:29.915Z,100035.06
2024-01-16T17:16:57.348Z,100017.31
2024-01-16T17:22:26.184Z,100009.22
2024-01-16T17:24:58.734Z,100027.16
2024-01-16T17:27:25.758Z,100041.13
2024-01-16T17:30:15.810Z,100043.75
2024-01-16T17:32:45.711Z,100014.34
2024-01-16T17:35:18.689Z,99990.84
2024-01-16T17:37:45.355Z,100009.59
2024-01-16T17:40:15.302Z,100019.75
2024-01-16T17:42:42.875Z,100010.84
2024-01-16T17:45:11.880Z,100028.19
2024-01-16T17:47:41.584Z,100002.88
2024-01-16T17:50:09.093Z,100022.81
2024-01-16T17:52:36.302Z,100049.38
2024-01-16T17:55:03.542Z,100032.44
2024-01-16T17:57:30.404Z,100053.41
2024-01-16T17:59:58.160Z,100070.34
2024-01-16T18:02:24.915Z,100045.59
2024-01-16T18:04:55.789Z,100035.63
2024-01-16T18:07:22.353Z,100063.38
2024-01-16T18:09:48.870Z,100038.25
2024-01-16T18:12:15.508Z,100035.81
2024-01-16T18:14:42.078Z,100028.03
2024-01-16T18:17:08.998Z,100000.53
2024-01-16T18:19:35.723Z,100020.28
2024-01-16T18:22:03.582Z,100043.59
2024-01-16T18:24:30.735Z,100039.03
2024-01-16T18:27:00.038Z,99997.53
2024-01-16T18:29:28.963Z,100010.63
2024-01-16T18:31:56.207Z,99995.91
2024-01-16T18:34:23.900Z,100009.47
2024-01-16T18:36:54.247Z,100011.09
2024-01-16T18:39:24.609Z,99985.03
2024-01-16T18:41:51.667Z,99964.00
2024-01-16T18:44:20.000Z,99999.44
2024-01-16T18:46:58.762Z,99953.38
2024-01-16T18:49:25.990Z,100003.22
2024-01-16T18:51:55.381Z,99970.91
2024-01-16T18:54:22.077Z,99977.31
2024-01-16T18:56:48.752Z,99991.69
2024-01-16T18:59:17.694Z,99990.06
2024-01-16T19:01:44.345Z,99983.03
2024-01-16T19:04:10.863Z,99971.69
2024-01-16T19:06:37.697Z,99960.06
2024-01-16T19:09:06.996Z,99974.69
2024-01-16T19:11:33.559Z,100003.41
2024-01-16T19:14:00.073Z,99983.88
2024-01-16T19:16:26.676Z,99967.47
2024-01-16T19:18:53.244Z,99985.03
2024-01-16T19:21:22.427Z,99977.63
2024-01-16T19:23:49.242Z,99961.41
2024-01-16T19:26:16.000Z,100003.69
2024-01-16T19:28:42.503Z,100002.69
2024-01-16T19:31:09.070Z,99978.69
2024-01-16T19:33:35.893Z,100015.78
2024-01-16T19:36:02.782Z,100002.63
2024-01-16T19:38:29.691Z,99985.94
2024-01-16T19:40:56.296Z,100009.44
2024-01-16T19:43:22.751Z,100031.41
2024-01-16T19:45:49.620Z,100047.97
2024-01-16T19:48:17.081Z,100022.44
2024-01-16T19:50:44.287Z,100042.38
2024-01-16T19:53:10.795Z,100059.09
2024-01-16T19:55:37.374Z,100082.47
2024-01-16T19:58:04.234Z,100081.69
2024-01-16T20:00:31.138Z,100073.84
2024-01-16T20:02:57.809Z,100098.94
2024-01-16T20:05:24.678Z,100090.72
2024-01-16T20:07:51.744Z,100086.97
2024-01-16T20:10:18.368Z,100091.91
2024-01-16T20:12:49.034Z,100097.75
2024-01-16T20:15:17.772Z,100111.47
2024-01-16T20:17:45.207Z,100122.47
2024-01-16T20:20:13.458Z,100125.50
2024-01-16T20:22:40.810Z,100138.88
2024-01-16T20:25:07.502Z,100134.88
2024-01-16T20:27:36.655Z,100130.53
2024-01-16T20:30:03.720Z,100118.94
2024-01-16T20:32:33.521Z,100154.91
2024-01-16T20:35:00.090Z,100164.91
2024-01-16T20:37:27.504Z,100176.09
2024-01-16T20:39:54.164Z,100171.97
2024-01-16T20:42:20.812Z,100160.59
2024-01-16T20:44:47.372Z,100164.78
2024-01-16T20:47:13.734Z,100204.94
2024-01-16T20:49:40.295Z,100187.41
2024-01-16T20:52:10.150Z,100205.97
2024-01-16T20:54:40.080Z,100196.81
2024-01-16T20:57:06.940Z,100187.69
2024-01-16T20:59:33.600Z,100177.28
2024-01-16T21:02:00.332Z,100217.41
2024-01-16T21:04:27.155Z,100221.41
2024-01-16T21:06:55.227Z,100198.91
2024-01-16T21:09:21.807Z,100208.72
2024-01-16T21:11:57.504Z,100213.13
2024-01-16T21:14:24.635Z,100239.06
2024-01-16T21:16:51.235Z,100252.09
2024-01-16T21:19:21.167Z,100237.31
2024-01-16T21:21:50.674Z,100247.72
2024-01-16T21:24:17.118Z,100227.34
2024-01-16T21:26:48.221Z,100218.16
2024-01-16T21:29:14.919Z,100255.94
2024-01-16T21:31:49.071Z,100225.19
2024-01-16T21:34:16.631Z,100237.75
2024-01-16T21:36:45.000Z,100228.16
2024-01-16T21:39:12.477Z,100239.75
2024-01-16T21:41:39.558Z,100228.97
2024-01-16T21:44:06.174Z,100235.97
2024-01-16T21:46:33.195Z,100237.56
2024-01-16T21:49:00.325Z,100247.53
2024-01-16T21:51:30.058Z,100256.56
2024-01-16T21:53:56.702Z,100261.97
2024-01-16T21:56:23.360Z,100260.78
2024-01-16T21:58:50.178Z,100266.19
2024-01-16T22:01:17.299Z,100263.56
2024-01-16T22:03:44.392Z,100258.16
2024-01-16T22:06:11.391Z,100290.97
2024-01-16T22:08:37.990Z,100281.56
2024-01-16T22:11:04.933Z,100280.56
2024-01-16T22:13:33.818Z,100276.97
2024-01-16T22:16:00.459Z,100298.97
2024-01-16T22:18:27.029Z,100287.16
2024-01-16T22:20:53.549Z,100311.16
2024-01-16T22:23:20.105Z,100306.75
2024-01-16T22:25:46.808Z,100311.97
2024-01-16T22:28:13.279Z,100325.34
2024-01-16T22:30:40.298Z,100319.56
2024-01-16T22:33:06.779Z,100314.75
2024-01-16T22:35:33.352Z,100300.94
2024-01-16T22:38:02.158Z,100304.13
2024-01-16T22:40:31.523Z,100297.34
2024-01-16T22:42:58.067Z,100297.94
2024-01-16T22:45:27.489Z,100282.34
2024-01-16T22:47:54.071Z,100299.53
2024-01-16T22:50:20.721Z,100311.94
2024-01-16T22:52:47.346Z,100272.34
2024-01-16T22:55:13.968Z,100270.97
2024-01-16T22:57:40.671Z,100265.78
2024-01-16T23:00:08.976Z,100256.38
2024-01-16T23:02:35.415Z,100218.19
2024-01-16T23:05:01.873Z,100246.97
2024-01-16T23:07:28.418Z,100235.78
2024-01-16T23:09:54.810Z,100226.59
2024-01-16T23:12:22.284Z,100212.03
2024-01-16T23:14:51.657Z,100201.63
2024-01-16T23:17:18.152Z,100206.22
2024-01-16T23:19:45.141Z,100191.44
2024-01-16T23:22:11.804Z,100196.22
2024-01-16T23:24:38.304Z,100197.63
2024-01-16T23:27:07.321Z,100176.84
2024-01-16T23:29:33.988Z,100177.84
2024-01-16T23:32:00.547Z,100143.09
2024-01-16T23:34:27.103Z,100153.25
2024-01-16T23:36:53.652Z,100144.47
2024-01-16T23:39:20.064Z,100150.44
2024-01-16T23:41:48.806Z,100122.47
2024-01-16T23:44:15.223Z,100136.69
2024-01-16T23:46:41.660Z,100123.28
2024-01-16T23:49:09.454Z,100103.31
2024-01-16T23:51:35.845Z,100124.06
2024-01-16T23:54:02.457Z,100098.91
2024-01-16T23:56:29.155Z,100103.47
2024-01-16T23:58:55.576Z,100088.72
